sensor_id;sensor_type;location;lat;lon;timestamp;P1;durP1;ratioP1;P2;durP2;ratioP2
73456;SDS011;61691;53.072;6.582;2023-04-30T00:10:29;16.30;;;4.00;;
73456;SDS011;61691;53.072;6.582;2023-04-30T00:12:56;20.25;;;3.95;;
73456;SDS011;61691;53.072;6.582;2023-04-30T00:15:22;16.65;;;3.95;;
73456;SDS011;61691;53.072;6.582;2023-04-30T00:17:49;15.68;;;3.75;;
73456;SDS011;61691;53.072;6.582;2023-04-30T00:20:16;18.95;;;4.10;;
73456;SDS011;61691;53.072;6.582;2023-04-30T00:22:43;16.40;;;3.92;;
73456;SDS011;61691;53.072;6.582;2023-04-30T00:25:10;18.25;;;4.38;;
73456;SDS011;61691;53.072;6.582;2023-04-30T00:27:37;17.50;;;4.03;;
73456;SDS011;61691;53.072;6.582;2023-04-30T00:30:06;19.73;;;4.43;;
73456;SDS011;61691;53.072;6.582;2023-04-30T00:32:33;17.02;;;4.22;;
73456;SDS011;61691;53.072;6.582;2023-04-30T00:35:00;22.38;;;4.20;;
73456;SDS011;61691;53.072;6.582;2023-04-30T00:37:26;19.98;;;5.03;;
73456;SDS011;61691;53.072;6.582;2023-04-30T00:39:53;19.60;;;4.20;;
73456;SDS011;61691;53.072;6.582;2023-04-30T00:42:20;14.43;;;4.05;;
73456;SDS011;61691;53.072;6.582;2023-04-30T00:44:46;18.45;;;4.05;;
73456;SDS011;61691;53.072;6.582;2023-04-30T00:47:13;16.13;;;4.53;;
73456;SDS011;61691;53.072;6.582;2023-04-30T00:49:40;15.20;;;3.55;;
73456;SDS011;61691;53.072;6.582;2023-04-30T00:52:07;16.45;;;4.03;;
73456;SDS011;61691;53.072;6.582;2023-04-30T00:54:34;16.35;;;3.97;;
73456;SDS011;61691;53.072;6.582;2023-04-30T00:57:01;16.33;;;3.83;;
73456;SDS011;61691;53.072;6.582;2023-04-30T00:59:30;19.08;;;4.47;;
73456;SDS011;61691;53.072;6.582;2023-04-30T01:01:57;16.63;;;3.60;;
73456;SDS011;61691;53.072;6.582;2023-04-30T01:04:24;16.27;;;3.95;;
73456;SDS011;61691;53.072;6.582;2023-04-30T01:06:51;16.70;;;3.70;;
73456;SDS011;61691;53.072;6.582;2023-04-30T01:09:18;16.05;;;3.65;;
73456;SDS011;61691;53.072;6.582;2023-04-30T01:14:32;19.15;;;3.80;;
73456;SDS011;61691;53.072;6.582;2023-04-30T01:17:11;17.67;;;4.25;;
73456;SDS011;61691;53.072;6.582;2023-04-30T01:19:46;17.35;;;4.35;;
73456;SDS011;61691;53.072;6.582;2023-04-30T01:22:55;19.08;;;4.47;;
73456;SDS011;61691;53.072;6.582;2023-04-30T01:30:34;21.00;;;5.57;;
73456;SDS011;61691;53.072;6.582;2023-04-30T01:33:02;18.73;;;5.15;;
73456;SDS011;61691;53.072;6.582;2023-04-30T01:43:55;17.80;;;4.38;;
73456;SDS011;61691;53.072;6.582;2023-04-30T01:46:37;16.02;;;4.47;;
73456;SDS011;61691;53.072;6.582;2023-04-30T01:51:44;15.32;;;4.13;;
73456;SDS011;61691;53.072;6.582;2023-04-30T01:54:20;18.15;;;5.35;;
73456;SDS011;61691;53.072;6.582;2023-04-30T01:57:00;17.88;;;4.50;;
73456;SDS011;61691;53.072;6.582;2023-04-30T01:59:32;15.32;;;4.28;;
73456;SDS011;61691;53.072;6.582;2023-04-30T02:02:01;16.50;;;4.60;;
73456;SDS011;61691;53.072;6.582;2023-04-30T02:04:28;17.42;;;4.35;;
73456;SDS011;61691;53.072;6.582;2023-04-30T02:06:55;18.63;;;4.18;;
73456;SDS011;61691;53.072;6.582;2023-04-30T02:09:21;20.45;;;5.07;;
73456;SDS011;61691;53.072;6.582;2023-04-30T02:11:49;16.73;;;4.15;;
73456;SDS011;61691;53.072;6.582;2023-04-30T02:14:16;16.33;;;4.25;;
73456;SDS011;61691;53.072;6.582;2023-04-30T02:16:43;18.70;;;4.47;;
73456;SDS011;61691;53.072;6.582;2023-04-30T02:19:09;17.00;;;4.22;;
73456;SDS011;61691;53.072;6.582;2023-04-30T02:21:38;16.67;;;4.50;;
73456;SDS011;61691;53.072;6.582;2023-04-30T02:24:04;17.48;;;4.30;;
73456;SDS011;61691;53.072;6.582;2023-04-30T02:26:31;16.67;;;4.15;;
73456;SDS011;61691;53.072;6.582;2023-04-30T02:28:59;16.50;;;4.50;;
73456;SDS011;61691;53.072;6.582;2023-04-30T02:31:25;18.02;;;4.60;;
73456;SDS011;61691;53.072;6.582;2023-04-30T02:33:52;20.02;;;5.07;;
73456;SDS011;61691;53.072;6.582;2023-04-30T02:36:19;17.58;;;5.03;;
73456;SDS011;61691;53.072;6.582;2023-04-30T02:38:45;17.90;;;4.75;;
73456;SDS011;61691;53.072;6.582;2023-04-30T02:41:12;16.73;;;4.45;;
73456;SDS011;61691;53.072;6.582;2023-04-30T02:43:39;18.73;;;4.90;;
73456;SDS011;61691;53.072;6.582;2023-04-30T02:46:05;17.10;;;4.68;;
73456;SDS011;61691;53.072;6.582;2023-04-30T02:48:33;15.43;;;4.13;;
73456;SDS011;61691;53.072;6.582;2023-04-30T02:50:59;17.55;;;4.93;;
73456;SDS011;61691;53.072;6.582;2023-04-30T02:53:26;16.92;;;4.97;;
73456;SDS011;61691;53.072;6.582;2023-04-30T02:55:59;17.95;;;5.00;;
73456;SDS011;61691;53.072;6.582;2023-04-30T02:58:28;19.00;;;4.70;;
73456;SDS011;61691;53.072;6.582;2023-04-30T03:00:54;17.45;;;4.80;;
73456;SDS011;61691;53.072;6.582;2023-04-30T03:03:21;16.90;;;5.05;;
73456;SDS011;61691;53.072;6.582;2023-04-30T03:05:48;16.75;;;5.32;;
73456;SDS011;61691;53.072;6.582;2023-04-30T03:08:15;15.85;;;4.70;;
73456;SDS011;61691;53.072;6.582;2023-04-30T03:10:41;17.92;;;4.95;;
73456;SDS011;61691;53.072;6.582;2023-04-30T03:13:08;19.33;;;5.60;;
73456;SDS011;61691;53.072;6.582;2023-04-30T03:15:35;18.15;;;5.40;;
73456;SDS011;61691;53.072;6.582;2023-04-30T03:18:01;15.80;;;4.70;;
73456;SDS011;61691;53.072;6.582;2023-04-30T03:20:29;21.63;;;6.10;;
73456;SDS011;61691;53.072;6.582;2023-04-30T03:22:56;17.08;;;4.95;;
73456;SDS011;61691;53.072;6.582;2023-04-30T03:25:22;18.25;;;5.20;;
73456;SDS011;61691;53.072;6.582;2023-04-30T03:27:49;18.02;;;5.03;;
73456;SDS011;61691;53.072;6.582;2023-04-30T03:30:16;15.73;;;4.55;;
73456;SDS011;61691;53.072;6.582;2023-04-30T03:32:42;16.30;;;4.65;;
73456;SDS011;61691;53.072;6.582;2023-04-30T03:35:09;16.75;;;5.03;;
73456;SDS011;61691;53.072;6.582;2023-04-30T03:37:36;15.88;;;5.03;;
73456;SDS011;61691;53.072;6.582;2023-04-30T03:40:03;16.02;;;5.35;;
73456;SDS011;61691;53.072;6.582;2023-04-30T03:42:30;18.42;;;5.75;;
73456;SDS011;61691;53.072;6.582;2023-04-30T03:44:56;17.38;;;5.45;;
73456;SDS011;61691;53.072;6.582;2023-04-30T03:47:23;17.50;;;5.32;;
73456;SDS011;61691;53.072;6.582;2023-04-30T03:49:50;16.58;;;4.55;;
73456;SDS011;61691;53.072;6.582;2023-04-30T03:52:21;15.23;;;4.63;;
73456;SDS011;61691;53.072;6.582;2023-04-30T03:54:48;21.08;;;6.05;;
73456;SDS011;61691;53.072;6.582;2023-04-30T03:57:14;18.33;;;6.00;;
73456;SDS011;61691;53.072;6.582;2023-04-30T03:59:41;16.85;;;5.45;;
73456;SDS011;61691;53.072;6.582;2023-04-30T04:02:08;18.20;;;5.07;;
73456;SDS011;61691;53.072;6.582;2023-04-30T04:04:35;17.90;;;4.78;;
73456;SDS011;61691;53.072;6.582;2023-04-30T04:07:02;18.25;;;5.63;;
73456;SDS011;61691;53.072;6.582;2023-04-30T04:09:29;16.42;;;5.40;;
73456;SDS011;61691;53.072;6.582;2023-04-30T04:11:56;16.42;;;5.38;;
73456;SDS011;61691;53.072;6.582;2023-04-30T04:14:23;17.85;;;5.15;;
73456;SDS011;61691;53.072;6.582;2023-04-30T04:16:50;17.35;;;5.97;;
73456;SDS011;61691;53.072;6.582;2023-04-30T04:19:16;18.85;;;5.88;;
73456;SDS011;61691;53.072;6.582;2023-04-30T04:21:43;18.65;;;5.75;;
73456;SDS011;61691;53.072;6.582;2023-04-30T04:24:10;18.17;;;5.63;;
73456;SDS011;61691;53.072;6.582;2023-04-30T04:26:37;22.52;;;5.72;;
73456;SDS011;61691;53.072;6.582;2023-04-30T04:29:03;19.77;;;5.93;;
73456;SDS011;61691;53.072;6.582;2023-04-30T04:31:30;19.25;;;5.63;;
73456;SDS011;61691;53.072;6.582;2023-04-30T04:33:58;19.25;;;5.20;;
73456;SDS011;61691;53.072;6.582;2023-04-30T04:36:26;19.58;;;5.15;;
73456;SDS011;61691;53.072;6.582;2023-04-30T04:38:53;17.58;;;5.40;;
73456;SDS011;61691;53.072;6.582;2023-04-30T04:41:27;17.00;;;5.30;;
73456;SDS011;61691;53.072;6.582;2023-04-30T04:43:55;19.38;;;5.63;;
73456;SDS011;61691;53.072;6.582;2023-04-30T04:46:22;20.60;;;4.93;;
73456;SDS011;61691;53.072;6.582;2023-04-30T04:48:50;17.77;;;5.05;;
73456;SDS011;61691;53.072;6.582;2023-04-30T04:51:17;16.15;;;4.70;;
73456;SDS011;61691;53.072;6.582;2023-04-30T04:53:44;20.75;;;5.55;;
73456;SDS011;61691;53.072;6.582;2023-04-30T04:56:10;18.27;;;4.95;;
73456;SDS011;61691;53.072;6.582;2023-04-30T04:58:38;19.20;;;5.35;;
73456;SDS011;61691;53.072;6.582;2023-04-30T05:01:05;16.23;;;4.35;;
73456;SDS011;61691;53.072;6.582;2023-04-30T05:03:32;15.65;;;4.35;;
73456;SDS011;61691;53.072;6.582;2023-04-30T05:06:02;17.33;;;4.45;;
73456;SDS011;61691;53.072;6.582;2023-04-30T05:08:29;16.27;;;4.22;;
73456;SDS011;61691;53.072;6.582;2023-04-30T05:10:56;15.63;;;4.32;;
73456;SDS011;61691;53.072;6.582;2023-04-30T05:13:23;18.05;;;4.18;;
73456;SDS011;61691;53.072;6.582;2023-04-30T05:15:50;20.27;;;5.10;;
73456;SDS011;61691;53.072;6.582;2023-04-30T05:18:18;17.27;;;4.30;;
73456;SDS011;61691;53.072;6.582;2023-04-30T05:20:45;16.85;;;4.45;;
73456;SDS011;61691;53.072;6.582;2023-04-30T05:23:12;15.50;;;4.30;;
73456;SDS011;61691;53.072;6.582;2023-04-30T05:25:39;14.57;;;3.67;;
73456;SDS011;61691;53.072;6.582;2023-04-30T05:28:05;16.20;;;3.72;;
73456;SDS011;61691;53.072;6.582;2023-04-30T05:30:32;18.35;;;3.78;;
73456;SDS011;61691;53.072;6.582;2023-04-30T05:32:59;15.50;;;3.75;;
73456;SDS011;61691;53.072;6.582;2023-04-30T05:35:26;12.52;;;3.10;;
73456;SDS011;61691;53.072;6.582;2023-04-30T05:37:53;15.15;;;3.80;;
73456;SDS011;61691;53.072;6.582;2023-04-30T05:40:19;17.67;;;3.92;;
73456;SDS011;61691;53.072;6.582;2023-04-30T05:42:46;17.40;;;3.50;;
73456;SDS011;61691;53.072;6.582;2023-04-30T05:45:13;16.88;;;3.90;;
73456;SDS011;61691;53.072;6.582;2023-04-30T05:47:42;17.48;;;3.70;;
73456;SDS011;61691;53.072;6.582;2023-04-30T05:50:09;15.93;;;4.32;;
73456;SDS011;61691;53.072;6.582;2023-04-30T05:52:36;18.55;;;4.38;;
73456;SDS011;61691;53.072;6.582;2023-04-30T05:55:04;20.05;;;4.28;;
73456;SDS011;61691;53.072;6.582;2023-04-30T05:57:31;16.45;;;3.95;;
73456;SDS011;61691;53.072;6.582;2023-04-30T05:59:57;17.88;;;4.03;;
73456;SDS011;61691;53.072;6.582;2023-04-30T06:02:24;17.02;;;4.20;;
73456;SDS011;61691;53.072;6.582;2023-04-30T06:04:51;18.23;;;3.97;;
73456;SDS011;61691;53.072;6.582;2023-04-30T06:07:18;17.27;;;3.95;;
73456;SDS011;61691;53.072;6.582;2023-04-30T06:09:45;21.50;;;4.68;;
73456;SDS011;61691;53.072;6.582;2023-04-30T06:12:11;17.77;;;4.57;;
73456;SDS011;61691;53.072;6.582;2023-04-30T06:14:38;17.10;;;3.50;;
73456;SDS011;61691;53.072;6.582;2023-04-30T06:17:05;17.40;;;3.80;;
73456;SDS011;61691;53.072;6.582;2023-04-30T06:19:31;18.83;;;3.78;;
73456;SDS011;61691;53.072;6.582;2023-04-30T06:21:58;18.73;;;3.45;;
73456;SDS011;61691;53.072;6.582;2023-04-30T06:24:25;15.77;;;3.80;;
73456;SDS011;61691;53.072;6.582;2023-04-30T06:26:52;15.77;;;3.60;;
73456;SDS011;61691;53.072;6.582;2023-04-30T06:29:19;23.70;;;4.10;;
73456;SDS011;61691;53.072;6.582;2023-04-30T06:31:46;19.10;;;4.07;;
73456;SDS011;61691;53.072;6.582;2023-04-30T06:34:13;14.45;;;3.35;;
73456;SDS011;61691;53.072;6.582;2023-04-30T06:36:39;22.27;;;4.10;;
73456;SDS011;61691;53.072;6.582;2023-04-30T06:39:06;17.02;;;3.78;;
73456;SDS011;61691;53.072;6.582;2023-04-30T06:41:33;21.02;;;4.22;;
73456;SDS011;61691;53.072;6.582;2023-04-30T06:43:59;18.70;;;3.55;;
73456;SDS011;61691;53.072;6.582;2023-04-30T06:46:26;19.13;;;3.50;;
73456;SDS011;61691;53.072;6.582;2023-04-30T06:48:53;17.95;;;3.17;;
73456;SDS011;61691;53.072;6.582;2023-04-30T06:51:20;19.70;;;3.10;;
73456;SDS011;61691;53.072;6.582;2023-04-30T06:53:46;14.68;;;2.63;;
73456;SDS011;61691;53.072;6.582;2023-04-30T06:56:13;17.98;;;3.10;;
73456;SDS011;61691;53.072;6.582;2023-04-30T06:58:39;18.60;;;3.35;;
73456;SDS011;61691;53.072;6.582;2023-04-30T07:01:06;16.83;;;2.80;;
73456;SDS011;61691;53.072;6.582;2023-04-30T07:03:33;12.52;;;2.50;;
73456;SDS011;61691;53.072;6.582;2023-04-30T07:06:01;16.50;;;3.33;;
73456;SDS011;61691;53.072;6.582;2023-04-30T07:08:28;16.33;;;2.58;;
73456;SDS011;61691;53.072;6.582;2023-04-30T07:10:54;13.75;;;2.60;;
73456;SDS011;61691;53.072;6.582;2023-04-30T07:13:21;14.75;;;2.35;;
73456;SDS011;61691;53.072;6.582;2023-04-30T07:15:49;16.02;;;2.50;;
73456;SDS011;61691;53.072;6.582;2023-04-30T07:18:16;13.73;;;2.55;;
73456;SDS011;61691;53.072;6.582;2023-04-30T07:20:43;20.85;;;3.13;;
73456;SDS011;61691;53.072;6.582;2023-04-30T07:23:10;15.25;;;2.97;;
73456;SDS011;61691;53.072;6.582;2023-04-30T07:25:37;15.32;;;2.80;;
73456;SDS011;61691;53.072;6.582;2023-04-30T07:28:04;18.20;;;2.92;;
73456;SDS011;61691;53.072;6.582;2023-04-30T07:30:31;17.70;;;3.05;;
73456;SDS011;61691;53.072;6.582;2023-04-30T07:32:58;14.02;;;2.80;;
73456;SDS011;61691;53.072;6.582;2023-04-30T07:35:24;19.30;;;3.53;;
73456;SDS011;61691;53.072;6.582;2023-04-30T07:37:51;17.02;;;2.92;;
73456;SDS011;61691;53.072;6.582;2023-04-30T07:40:18;16.45;;;3.25;;
73456;SDS011;61691;53.072;6.582;2023-04-30T07:43:01;14.23;;;2.70;;
73456;SDS011;61691;53.072;6.582;2023-04-30T07:45:28;17.00;;;2.95;;
73456;SDS011;61691;53.072;6.582;2023-04-30T07:47:54;15.85;;;2.78;;
73456;SDS011;61691;53.072;6.582;2023-04-30T07:50:21;17.77;;;3.50;;
73456;SDS011;61691;53.072;6.582;2023-04-30T07:52:48;15.82;;;3.05;;
73456;SDS011;61691;53.072;6.582;2023-04-30T07:55:15;15.63;;;2.58;;
73456;SDS011;61691;53.072;6.582;2023-04-30T07:57:42;19.88;;;3.00;;
73456;SDS011;61691;53.072;6.582;2023-04-30T08:00:09;16.00;;;2.42;;
73456;SDS011;61691;53.072;6.582;2023-04-30T08:02:36;16.13;;;3.38;;
73456;SDS011;61691;53.072;6.582;2023-04-30T08:05:03;20.27;;;3.20;;
73456;SDS011;61691;53.072;6.582;2023-04-30T08:07:31;17.98;;;3.08;;
73456;SDS011;61691;53.072;6.582;2023-04-30T08:09:57;20.95;;;3.33;;
73456;SDS011;61691;53.072;6.582;2023-04-30T08:12:24;14.48;;;2.50;;
73456;SDS011;61691;53.072;6.582;2023-04-30T08:14:58;19.13;;;3.05;;
73456;SDS011;61691;53.072;6.582;2023-04-30T08:17:27;17.98;;;3.17;;
73456;SDS011;61691;53.072;6.582;2023-04-30T08:19:54;21.30;;;3.55;;
73456;SDS011;61691;53.072;6.582;2023-04-30T08:22:22;16.15;;;3.20;;
73456;SDS011;61691;53.072;6.582;2023-04-30T08:24:48;17.08;;;3.28;;
73456;SDS011;61691;53.072;6.582;2023-04-30T08:27:15;19.58;;;3.15;;
73456;SDS011;61691;53.072;6.582;2023-04-30T08:29:42;13.60;;;2.50;;
73456;SDS011;61691;53.072;6.582;2023-04-30T08:32:09;17.67;;;2.92;;
73456;SDS011;61691;53.072;6.582;2023-04-30T08:34:36;15.88;;;3.28;;
73456;SDS011;61691;53.072;6.582;2023-04-30T08:37:02;14.27;;;2.60;;
73456;SDS011;61691;53.072;6.582;2023-04-30T08:39:29;16.65;;;2.90;;
73456;SDS011;61691;53.072;6.582;2023-04-30T08:41:56;17.67;;;3.22;;
73456;SDS011;61691;53.072;6.582;2023-04-30T08:44:27;16.15;;;3.30;;
73456;SDS011;61691;53.072;6.582;2023-04-30T08:46:55;13.25;;;3.00;;
73456;SDS011;61691;53.072;6.582;2023-04-30T08:51:53;16.63;;;2.90;;
73456;SDS011;61691;53.072;6.582;2023-04-30T08:54:20;16.42;;;2.92;;
73456;SDS011;61691;53.072;6.582;2023-04-30T08:56:49;11.75;;;2.47;;
73456;SDS011;61691;53.072;6.582;2023-04-30T08:59:16;16.67;;;3.00;;
73456;SDS011;61691;53.072;6.582;2023-04-30T09:01:43;18.80;;;2.95;;
73456;SDS011;61691;53.072;6.582;2023-04-30T09:04:10;17.88;;;2.95;;
73456;SDS011;61691;53.072;6.582;2023-04-30T09:06:37;18.17;;;3.22;;
73456;SDS011;61691;53.072;6.582;2023-04-30T09:09:10;20.17;;;3.10;;
73456;SDS011;61691;53.072;6.582;2023-04-30T09:11:38;21.30;;;3.28;;
73456;SDS011;61691;53.072;6.582;2023-04-30T09:14:05;17.38;;;3.42;;
73456;SDS011;61691;53.072;6.582;2023-04-30T09:16:43;17.13;;;3.20;;
73456;SDS011;61691;53.072;6.582;2023-04-30T09:19:27;15.68;;;3.10;;
73456;SDS011;61691;53.072;6.582;2023-04-30T09:21:55;16.88;;;3.45;;
73456;SDS011;61691;53.072;6.582;2023-04-30T09:24:23;18.40;;;3.15;;
73456;SDS011;61691;53.072;6.582;2023-04-30T09:26:50;14.27;;;2.88;;
73456;SDS011;61691;53.072;6.582;2023-04-30T09:29:16;17.63;;;3.08;;
73456;SDS011;61691;53.072;6.582;2023-04-30T09:31:46;15.13;;;3.40;;
73456;SDS011;61691;53.072;6.582;2023-04-30T09:34:13;15.70;;;2.87;;
73456;SDS011;61691;53.072;6.582;2023-04-30T09:36:52;18.95;;;3.38;;
73456;SDS011;61691;53.072;6.582;2023-04-30T09:39:20;15.87;;;3.10;;
73456;SDS011;61691;53.072;6.582;2023-04-30T09:41:47;16.38;;;3.53;;
73456;SDS011;61691;53.072;6.582;2023-04-30T09:44:29;15.95;;;3.05;;
73456;SDS011;61691;53.072;6.582;2023-04-30T09:46:57;15.30;;;2.90;;
73456;SDS011;61691;53.072;6.582;2023-04-30T09:49:24;15.90;;;2.83;;
73456;SDS011;61691;53.072;6.582;2023-04-30T09:51:56;16.83;;;3.10;;
73456;SDS011;61691;53.072;6.582;2023-04-30T09:54:25;17.98;;;3.40;;
73456;SDS011;61691;53.072;6.582;2023-04-30T09:56:56;19.10;;;3.35;;
73456;SDS011;61691;53.072;6.582;2023-04-30T10:02:01;15.45;;;3.03;;
73456;SDS011;61691;53.072;6.582;2023-04-30T10:04:32;15.30;;;3.72;;
73456;SDS011;61691;53.072;6.582;2023-04-30T10:07:01;15.77;;;3.40;;
73456;SDS011;61691;53.072;6.582;2023-04-30T10:09:34;15.82;;;2.90;;
73456;SDS011;61691;53.072;6.582;2023-04-30T10:12:05;12.05;;;2.60;;
73456;SDS011;61691;53.072;6.582;2023-04-30T10:14:38;17.70;;;2.92;;
73456;SDS011;61691;53.072;6.582;2023-04-30T10:17:12;16.90;;;3.22;;
73456;SDS011;61691;53.072;6.582;2023-04-30T10:19:43;17.17;;;3.30;;
73456;SDS011;61691;53.072;6.582;2023-04-30T10:22:14;17.48;;;3.38;;
73456;SDS011;61691;53.072;6.582;2023-04-30T10:24:41;14.45;;;3.00;;
73456;SDS011;61691;53.072;6.582;2023-04-30T10:27:10;15.43;;;3.10;;
73456;SDS011;61691;53.072;6.582;2023-04-30T10:29:37;16.95;;;3.22;;
73456;SDS011;61691;53.072;6.582;2023-04-30T10:32:04;13.88;;;3.00;;
73456;SDS011;61691;53.072;6.582;2023-04-30T10:39:46;16.67;;;3.33;;
73456;SDS011;61691;53.072;6.582;2023-04-30T10:42:13;16.00;;;2.80;;
73456;SDS011;61691;53.072;6.582;2023-04-30T10:44:40;14.68;;;2.65;;
73456;SDS011;61691;53.072;6.582;2023-04-30T10:47:07;14.95;;;2.72;;
73456;SDS011;61691;53.072;6.582;2023-04-30T10:49:33;16.08;;;3.13;;
73456;SDS011;61691;53.072;6.582;2023-04-30T10:52:01;15.35;;;3.08;;
73456;SDS011;61691;53.072;6.582;2023-04-30T10:54:30;16.33;;;3.47;;
73456;SDS011;61691;53.072;6.582;2023-04-30T10:57:10;17.15;;;3.15;;
73456;SDS011;61691;53.072;6.582;2023-04-30T10:59:44;14.98;;;3.72;;
73456;SDS011;61691;53.072;6.582;2023-04-30T11:02:18;15.30;;;3.13;;
73456;SDS011;61691;53.072;6.582;2023-04-30T11:07:34;15.20;;;3.15;;
73456;SDS011;61691;53.072;6.582;2023-04-30T11:10:01;13.00;;;2.70;;
73456;SDS011;61691;53.072;6.582;2023-04-30T11:12:29;15.60;;;3.20;;
73456;SDS011;61691;53.072;6.582;2023-04-30T11:15:06;12.55;;;2.90;;
73456;SDS011;61691;53.072;6.582;2023-04-30T11:17:38;15.38;;;3.15;;
73456;SDS011;61691;53.072;6.582;2023-04-30T11:20:06;15.00;;;3.35;;
73456;SDS011;61691;53.072;6.582;2023-04-30T11:22:37;13.48;;;3.30;;
73456;SDS011;61691;53.072;6.582;2023-04-30T11:25:05;15.32;;;3.10;;
73456;SDS011;61691;53.072;6.582;2023-04-30T11:27:36;15.02;;;3.53;;
73456;SDS011;61691;53.072;6.582;2023-04-30T11:30:14;14.10;;;2.90;;
73456;SDS011;61691;53.072;6.582;2023-04-30T11:32:44;15.90;;;2.88;;
73456;SDS011;61691;53.072;6.582;2023-04-30T11:35:15;14.65;;;3.20;;
73456;SDS011;61691;53.072;6.582;2023-04-30T11:37:44;16.08;;;3.28;;
73456;SDS011;61691;53.072;6.582;2023-04-30T11:40:12;14.93;;;2.92;;
73456;SDS011;61691;53.072;6.582;2023-04-30T11:42:40;15.63;;;3.70;;
73456;SDS011;61691;53.072;6.582;2023-04-30T11:45:13;13.25;;;3.13;;
73456;SDS011;61691;53.072;6.582;2023-04-30T11:47:49;14.93;;;3.40;;
73456;SDS011;61691;53.072;6.582;2023-04-30T11:50:18;16.17;;;3.10;;
73456;SDS011;61691;53.072;6.582;2023-04-30T11:52:53;15.10;;;3.15;;
73456;SDS011;61691;53.072;6.582;2023-04-30T11:55:25;13.95;;;3.42;;
73456;SDS011;61691;53.072;6.582;2023-04-30T11:57:53;11.68;;;2.72;;
73456;SDS011;61691;53.072;6.582;2023-04-30T12:00:25;15.00;;;3.00;;
73456;SDS011;61691;53.072;6.582;2023-04-30T12:02:54;13.18;;;3.10;;
73456;SDS011;61691;53.072;6.582;2023-04-30T12:05:25;15.30;;;3.38;;
73456;SDS011;61691;53.072;6.582;2023-04-30T12:10:25;14.18;;;2.85;;
73456;SDS011;61691;53.072;6.582;2023-04-30T12:12:52;15.20;;;3.13;;
73456;SDS011;61691;53.072;6.582;2023-04-30T12:15:21;14.27;;;3.25;;
73456;SDS011;61691;53.072;6.582;2023-04-30T12:17:53;15.85;;;3.40;;
73456;SDS011;61691;53.072;6.582;2023-04-30T12:20:22;13.27;;;2.95;;
73456;SDS011;61691;53.072;6.582;2023-04-30T12:22:51;12.50;;;2.63;;
73456;SDS011;61691;53.072;6.582;2023-04-30T12:25:18;15.50;;;3.03;;
73456;SDS011;61691;53.072;6.582;2023-04-30T12:27:50;12.48;;;2.78;;
73456;SDS011;61691;53.072;6.582;2023-04-30T12:30:22;14.27;;;2.83;;
73456;SDS011;61691;53.072;6.582;2023-04-30T12:32:52;15.35;;;3.08;;
73456;SDS011;61691;53.072;6.582;2023-04-30T12:35:23;11.73;;;2.67;;
73456;SDS011;61691;53.072;6.582;2023-04-30T12:38:00;14.67;;;3.17;;
73456;SDS011;61691;53.072;6.582;2023-04-30T12:40:28;15.48;;;2.92;;
73456;SDS011;61691;53.072;6.582;2023-04-30T12:43:05;13.68;;;3.28;;
73456;SDS011;61691;53.072;6.582;2023-04-30T12:45:47;12.57;;;2.83;;
73456;SDS011;61691;53.072;6.582;2023-04-30T12:48:24;11.82;;;2.80;;
73456;SDS011;61691;53.072;6.582;2023-04-30T12:50:54;11.52;;;2.90;;
73456;SDS011;61691;53.072;6.582;2023-04-30T12:53:27;13.80;;;2.88;;
73456;SDS011;61691;53.072;6.582;2023-04-30T12:56:10;14.95;;;3.17;;
73456;SDS011;61691;53.072;6.582;2023-04-30T12:58:38;14.10;;;3.17;;
73456;SDS011;61691;53.072;6.582;2023-04-30T13:01:09;13.52;;;3.38;;
73456;SDS011;61691;53.072;6.582;2023-04-30T13:03:38;10.68;;;2.80;;
73456;SDS011;61691;53.072;6.582;2023-04-30T13:06:05;14.98;;;3.75;;
73456;SDS011;61691;53.072;6.582;2023-04-30T13:08:32;14.15;;;2.92;;
73456;SDS011;61691;53.072;6.582;2023-04-30T13:11:15;12.07;;;3.22;;
73456;SDS011;61691;53.072;6.582;2023-04-30T13:13:42;11.98;;;3.30;;
73456;SDS011;61691;53.072;6.582;2023-04-30T13:16:09;14.35;;;2.97;;
73456;SDS011;61691;53.072;6.582;2023-04-30T13:18:36;10.15;;;2.70;;
73456;SDS011;61691;53.072;6.582;2023-04-30T13:21:03;12.38;;;3.22;;
73456;SDS011;61691;53.072;6.582;2023-04-30T13:23:29;13.25;;;2.90;;
73456;SDS011;61691;53.072;6.582;2023-04-30T13:26:06;14.20;;;3.42;;
73456;SDS011;61691;53.072;6.582;2023-04-30T13:28:33;11.02;;;2.60;;
73456;SDS011;61691;53.072;6.582;2023-04-30T13:31:00;12.55;;;2.92;;
73456;SDS011;61691;53.072;6.582;2023-04-30T13:33:28;13.02;;;2.80;;
73456;SDS011;61691;53.072;6.582;2023-04-30T13:35:55;11.02;;;2.60;;
73456;SDS011;61691;53.072;6.582;2023-04-30T13:38:21;11.95;;;2.70;;
73456;SDS011;61691;53.072;6.582;2023-04-30T13:40:48;11.75;;;2.78;;
73456;SDS011;61691;53.072;6.582;2023-04-30T13:43:15;14.50;;;3.20;;
73456;SDS011;61691;53.072;6.582;2023-04-30T13:45:42;11.20;;;2.78;;
73456;SDS011;61691;53.072;6.582;2023-04-30T13:48:08;14.25;;;3.28;;
73456;SDS011;61691;53.072;6.582;2023-04-30T13:50:36;13.07;;;3.10;;
73456;SDS011;61691;53.072;6.582;2023-04-30T13:53:02;12.60;;;2.85;;
73456;SDS011;61691;53.072;6.582;2023-04-30T13:55:29;11.60;;;2.60;;
73456;SDS011;61691;53.072;6.582;2023-04-30T13:57:56;13.07;;;2.85;;
73456;SDS011;61691;53.072;6.582;2023-04-30T14:00:23;11.20;;;2.58;;
73456;SDS011;61691;53.072;6.582;2023-04-30T14:02:51;11.52;;;2.45;;
73456;SDS011;61691;53.072;6.582;2023-04-30T14:05:18;12.65;;;2.80;;
73456;SDS011;61691;53.072;6.582;2023-04-30T14:07:45;12.30;;;2.70;;
73456;SDS011;61691;53.072;6.582;2023-04-30T14:10:11;12.32;;;2.70;;
73456;SDS011;61691;53.072;6.582;2023-04-30T14:12:38;12.90;;;2.88;;
73456;SDS011;61691;53.072;6.582;2023-04-30T14:15:05;10.77;;;2.33;;
73456;SDS011;61691;53.072;6.582;2023-04-30T14:17:33;13.52;;;2.70;;
73456;SDS011;61691;53.072;6.582;2023-04-30T14:20:01;10.93;;;2.33;;
73456;SDS011;61691;53.072;6.582;2023-04-30T14:22:28;12.13;;;2.50;;
73456;SDS011;61691;53.072;6.582;2023-04-30T14:24:54;12.80;;;3.00;;
73456;SDS011;61691;53.072;6.582;2023-04-30T14:27:21;12.50;;;2.90;;
73456;SDS011;61691;53.072;6.582;2023-04-30T14:29:48;14.15;;;2.95;;
73456;SDS011;61691;53.072;6.582;2023-04-30T14:32:15;12.93;;;3.17;;
73456;SDS011;61691;53.072;6.582;2023-04-30T14:34:42;11.23;;;2.33;;
73456;SDS011;61691;53.072;6.582;2023-04-30T14:37:09;10.75;;;2.65;;
73456;SDS011;61691;53.072;6.582;2023-04-30T14:39:37;13.75;;;2.90;;
73456;SDS011;61691;53.072;6.582;2023-04-30T14:42:03;10.63;;;2.67;;
73456;SDS011;61691;53.072;6.582;2023-04-30T14:44:30;11.73;;;2.85;;
73456;SDS011;61691;53.072;6.582;2023-04-30T14:46:57;12.48;;;2.60;;
73456;SDS011;61691;53.072;6.582;2023-04-30T14:49:25;12.98;;;2.83;;
73456;SDS011;61691;53.072;6.582;2023-04-30T14:51:52;14.57;;;2.70;;
73456;SDS011;61691;53.072;6.582;2023-04-30T14:54:19;10.13;;;2.47;;
73456;SDS011;61691;53.072;6.582;2023-04-30T14:56:46;12.43;;;2.70;;
73456;SDS011;61691;53.072;6.582;2023-04-30T14:59:13;12.45;;;2.65;;
73456;SDS011;61691;53.072;6.582;2023-04-30T15:01:40;11.88;;;2.70;;
73456;SDS011;61691;53.072;6.582;2023-04-30T15:04:07;12.73;;;2.70;;
73456;SDS011;61691;53.072;6.582;2023-04-30T15:06:34;11.35;;;2.80;;
73456;SDS011;61691;53.072;6.582;2023-04-30T15:09:01;12.60;;;2.30;;
73456;SDS011;61691;53.072;6.582;2023-04-30T15:11:29;11.10;;;2.35;;
73456;SDS011;61691;53.072;6.582;2023-04-30T15:13:55;13.20;;;2.65;;
73456;SDS011;61691;53.072;6.582;2023-04-30T15:16:22;12.52;;;2.70;;
73456;SDS011;61691;53.072;6.582;2023-04-30T15:18:49;11.93;;;2.13;;
73456;SDS011;61691;53.072;6.582;2023-04-30T15:21:16;13.07;;;2.53;;
73456;SDS011;61691;53.072;6.582;2023-04-30T15:23:44;9.93;;;2.33;;